Pubnico, Canada
Current Conditions -  °F | °C
As of 3:00 PM on Monday 20 Oct 2014 (Local Time) from CYQI Reporting Station
Broken Clouds Broken Clouds  
Wind Chill: 39°   Ceiling: 2000
Heat Index: 46°   Visibility: 15mi
Dew Point: 36°   Wind: 20mph
Humidity: 66%   Direction: 290°WNW
Pressure: 29.93"   Gusts: 28mph
Location:  43.7°N, 65.78°W
Report Text: CYQI 201800Z 29017G24KT 15SM BKN020 08/02 A2993 RMK SC7 SLP135
Loading
Personal Weather Stations






























Interactive Weather Map
Tropical Storm Tracking
New forecast layout! Learn more

10-Day Weather Forecast

Advertisements
Track Severe Weather on mobile